createdAt,value
2022-12-13T00:01:50.396Z,-4.50
2022-12-13T00:04:18.959Z,-4.30
2022-12-13T00:06:46.650Z,-4.30
2022-12-13T00:09:16.265Z,-4.30
2022-12-13T00:11:43.981Z,-4.30
2022-12-13T00:14:14.031Z,-4.40
2022-12-13T00:16:41.631Z,-4.40
2022-12-13T00:19:08.527Z,-4.50
2022-12-13T00:21:35.521Z,-4.40
2022-12-13T00:24:02.828Z,-4.40
2022-12-13T00:26:31.930Z,-4.50
2022-12-13T00:29:05.516Z,-4.50
2022-12-13T00:34:20.354Z,-4.70
2022-12-13T00:36:48.237Z,-4.50
2022-12-13T00:39:16.586Z,-4.30
2022-12-13T00:41:44.874Z,-4.30
2022-12-13T00:44:13.430Z,-4.30
2022-12-13T00:46:41.506Z,-4.30
2022-12-13T00:49:10.250Z,-4.20
2022-12-13T00:51:37.367Z,-4.20
2022-12-13T00:54:04.502Z,-4.20
2022-12-13T00:56:33.897Z,-4.20
2022-12-13T00:59:00.941Z,-4.20
2022-12-13T01:01:31.827Z,-4.30
2022-12-13T01:04:02.568Z,-4.30
2022-12-13T01:06:36.885Z,-4.20
2022-12-13T01:09:05.769Z,-4.20
2022-12-13T01:11:33.023Z,-4.20
2022-12-13T01:14:00.178Z,-4.20
2022-12-13T01:16:27.205Z,-4.20
2022-12-13T01:18:54.301Z,-4.20
2022-12-13T01:21:22.253Z,-4.20
2022-12-13T01:23:49.695Z,-4.20
2022-12-13T01:26:20.775Z,-4.30
2022-12-13T01:28:48.442Z,-4.30
2022-12-13T01:31:19.672Z,-4.40
2022-12-13T01:33:48.069Z,-4.40
2022-12-13T01:36:19.046Z,-4.40
2022-12-13T01:38:46.261Z,-4.30
2022-12-13T01:41:20.299Z,-4.30
2022-12-13T01:44:39.904Z,-4.40
2022-12-13T01:47:06.955Z,-4.30
2022-12-13T01:49:34.119Z,-4.40
2022-12-13T01:52:07.676Z,-4.40
2022-12-13T01:54:46.421Z,-4.30
2022-12-13T01:57:17.629Z,-4.40
2022-12-13T01:59:45.328Z,-4.50
2022-12-13T02:02:14.608Z,-4.40
2022-12-13T02:04:54.394Z,-4.50
2022-12-13T02:07:28.097Z,-4.50
2022-12-13T02:10:00.249Z,-4.70
2022-12-13T02:12:32.222Z,-4.80
2022-12-13T02:15:05.101Z,-5.00
2022-12-13T02:17:55.227Z,-4.90
2022-12-13T02:20:53.922Z,-4.90
2022-12-13T02:24:08.717Z,-4.90
2022-12-13T02:27:04.573Z,-4.80
2022-12-13T02:29:43.405Z,-4.80
2022-12-13T02:32:37.737Z,-4.70
2022-12-13T02:35:22.294Z,-4.60
2022-12-13T02:38:14.224Z,-4.70
2022-12-13T02:41:00.811Z,-4.70
2022-12-13T02:43:45.916Z,-4.70
2022-12-13T02:46:16.803Z,-4.80
2022-12-13T02:48:45.262Z,-4.70
2022-12-13T02:51:14.099Z,-4.60
2022-12-13T02:53:42.126Z,-4.60
2022-12-13T02:56:09.235Z,-4.60
2022-12-13T02:58:52.125Z,-4.70
2022-12-13T03:01:52.348Z,-4.70
2022-12-13T03:05:23.457Z,-4.80
2022-12-13T03:08:27.804Z,-4.80
2022-12-13T03:11:06.296Z,-4.90
2022-12-13T03:13:57.282Z,-4.80
2022-12-13T03:16:37.958Z,-4.90
2022-12-13T03:19:08.409Z,-5.00
2022-12-13T03:21:47.245Z,-5.00
2022-12-13T03:24:19.223Z,-5.00
2022-12-13T03:26:47.799Z,-5.10
2022-12-13T03:29:23.825Z,-5.00
2022-12-13T03:31:55.541Z,-4.90
2022-12-13T03:34:23.731Z,-5.00
2022-12-13T03:36:54.032Z,-5.00
2022-12-13T03:39:22.329Z,-4.90
2022-12-13T03:41:49.879Z,-4.90
2022-12-13T03:44:16.879Z,-4.70
2022-12-13T03:46:43.828Z,-4.90
2022-12-13T03:49:16.677Z,-4.80
2022-12-13T03:51:44.230Z,-4.80
2022-12-13T03:54:11.135Z,-4.70
2022-12-13T03:56:38.013Z,-4.70
2022-12-13T03:59:05.634Z,-4.80
2022-12-13T04:01:32.714Z,-4.70
2022-12-13T04:03:59.657Z,-4.70
2022-12-13T04:06:31.336Z,-4.80
2022-12-13T04:09:00.299Z,-4.80
2022-12-13T04:11:45.471Z,-4.70
2022-12-13T04:14:22.523Z,-4.80
2022-12-13T04:16:51.831Z,-4.80
2022-12-13T04:19:22.975Z,-4.80
2022-12-13T04:21:52.270Z,-4.80
2022-12-13T04:24:32.139Z,-4.90
2022-12-13T04:27:01.267Z,-4.80
2022-12-13T04:29:34.149Z,-4.90
2022-12-13T04:32:03.734Z,-4.90
2022-12-13T04:34:36.778Z,-5.20
2022-12-13T04:37:04.381Z,-5.10
2022-12-13T04:39:33.901Z,-5.00
2022-12-13T04:42:01.603Z,-5.00
2022-12-13T04:44:32.581Z,-5.00
2022-12-13T04:47:04.222Z,-5.00
2022-12-13T04:49:32.036Z,-4.90
2022-12-13T04:52:01.708Z,-5.00
2022-12-13T04:54:35.524Z,-4.90
2022-12-13T04:57:09.152Z,-4.90
2022-12-13T04:59:37.184Z,-5.00
2022-12-13T05:02:06.257Z,-4.90
2022-12-13T05:04:33.553Z,-5.00
2022-12-13T05:07:02.714Z,-4.90
2022-12-13T05:09:29.750Z,-4.90
2022-12-13T05:12:01.343Z,-5.00
2022-12-13T05:14:31.510Z,-5.10
2022-12-13T05:17:00.223Z,-5.10
2022-12-13T05:19:31.129Z,-5.30
2022-12-13T05:22:01.102Z,-5.30
2022-12-13T05:24:32.442Z,-5.20
2022-12-13T05:27:00.021Z,-5.20
2022-12-13T05:29:27.986Z,-5.10
2022-12-13T05:31:55.001Z,-5.10
2022-12-13T05:34:21.989Z,-5.00
2022-12-13T05:36:50.106Z,-5.00
2022-12-13T05:39:28.442Z,-4.90
2022-12-13T05:42:01.507Z,-5.00
2022-12-13T05:44:33.327Z,-4.80
2022-12-13T05:47:02.552Z,-4.80
2022-12-13T05:49:30.280Z,-4.90
2022-12-13T05:51:57.326Z,-4.90
2022-12-13T05:54:24.210Z,-5.00
2022-12-13T05:56:51.176Z,-5.10
2022-12-13T05:59:18.286Z,-5.10
2022-12-13T06:01:45.374Z,-5.10
2022-12-13T06:04:13.036Z,-5.20
2022-12-13T06:06:51.544Z,-5.20
2022-12-13T06:09:19.985Z,-4.90
2022-12-13T06:11:47.436Z,-5.10
2022-12-13T06:14:22.213Z,-5.20
2022-12-13T06:16:52.562Z,-5.20
2022-12-13T06:19:21.513Z,-5.30
2022-12-13T06:21:49.912Z,-5.20
2022-12-13T06:24:19.955Z,-5.20
2022-12-13T06:26:46.985Z,-5.20
2022-12-13T06:29:24.302Z,-5.30
2022-12-13T06:32:01.834Z,-5.30
2022-12-13T06:34:35.704Z,-5.40
2022-12-13T06:37:06.889Z,-5.40
2022-12-13T06:39:34.630Z,-5.50
2022-12-13T06:42:07.021Z,-5.40
2022-12-13T06:44:35.298Z,-5.50
2022-12-13T06:47:10.129Z,-5.60
2022-12-13T06:49:40.787Z,-5.50
2022-12-13T06:52:11.803Z,-5.60
2022-12-13T06:54:38.917Z,-5.50
2022-12-13T06:57:05.999Z,-5.50
2022-12-13T06:59:32.950Z,-5.50
2022-12-13T07:02:03.756Z,-5.50
2022-12-13T07:04:32.425Z,-5.50
2022-12-13T07:07:01.310Z,-5.50
2022-12-13T07:09:33.354Z,-5.50
2022-12-13T07:12:00.714Z,-5.50
2022-12-13T07:14:27.655Z,-5.60
2022-12-13T07:16:59.611Z,-5.60
2022-12-13T07:19:35.413Z,-5.60
2022-12-13T07:22:05.879Z,-5.50
2022-12-13T07:24:34.850Z,-5.50
2022-12-13T07:27:03.040Z,-5.60
2022-12-13T07:29:30.033Z,-5.60
2022-12-13T07:32:01.600Z,-5.50
2022-12-13T07:34:30.337Z,-5.50
2022-12-13T07:36:57.297Z,-5.40
2022-12-13T07:39:28.513Z,-5.50
2022-12-13T07:41:56.307Z,-5.50
2022-12-13T07:44:24.959Z,-5.40
2022-12-13T07:46:52.370Z,-5.40
2022-12-13T07:49:19.780Z,-5.40
2022-12-13T07:51:46.696Z,-5.40
2022-12-13T07:54:13.576Z,-5.30
2022-12-13T07:56:40.796Z,-5.30
2022-12-13T07:59:09.438Z,-5.30
2022-12-13T08:01:36.621Z,-5.30
2022-12-13T08:04:04.940Z,-5.30
2022-12-13T08:06:37.108Z,-5.30
2022-12-13T08:09:05.745Z,-5.20
2022-12-13T08:11:32.824Z,-5.20
2022-12-13T08:13:59.879Z,-5.20
2022-12-13T08:16:29.344Z,-5.10
2022-12-13T08:19:01.904Z,-5.10
2022-12-13T08:22:01.292Z,-5.00
2022-12-13T08:24:30.801Z,-5.00
2022-12-13T08:27:03.298Z,-4.90
2022-12-13T08:29:34.322Z,-4.80
2022-12-13T08:32:10.271Z,-4.80
2022-12-13T08:34:37.770Z,-4.80
2022-12-13T08:37:05.405Z,-4.60
2022-12-13T08:39:39.899Z,-4.60
2022-12-13T08:42:15.461Z,-4.50
2022-12-13T08:44:52.590Z,-4.60
2022-12-13T08:47:27.125Z,-4.50
2022-12-13T08:50:04.011Z,-4.50
2022-12-13T08:52:40.478Z,-4.40
2022-12-13T08:55:10.581Z,-4.30
2022-12-13T08:57:38.433Z,-4.20
2022-12-13T09:00:09.056Z,-4.20
2022-12-13T09:02:37.952Z,-4.10
2022-12-13T09:05:07.898Z,-4.00
2022-12-13T09:07:36.686Z,-4.00
2022-12-13T09:10:27.338Z,-4.00
2022-12-13T09:13:01.607Z,-3.90
2022-12-13T09:15:34.705Z,-3.80
2022-12-13T09:18:04.466Z,-3.70
2022-12-13T09:20:41.446Z,-3.60
2022-12-13T09:23:21.596Z,-3.50
2022-12-13T09:26:05.579Z,-3.50
2022-12-13T09:28:35.154Z,-3.50
2022-12-13T09:31:06.212Z,-3.30
2022-12-13T09:33:40.929Z,-3.20
2022-12-13T09:36:12.586Z,-3.20
2022-12-13T09:38:39.845Z,-3.10
2022-12-13T09:41:33.660Z,-3.10
2022-12-13T09:44:31.080Z,-3.10
2022-12-13T09:47:04.496Z,-3.20
2022-12-13T09:49:44.311Z,-3.10
2022-12-13T09:52:23.114Z,-3.20
2022-12-13T09:54:56.789Z,-3.10
2022-12-13T09:57:33.883Z,-2.90
2022-12-13T10:00:23.581Z,-2.80
2022-12-13T10:02:55.133Z,-2.80
2022-12-13T10:05:40.645Z,-2.90
2022-12-13T10:08:15.565Z,-2.90
2022-12-13T10:10:46.099Z,-2.80
2022-12-13T10:13:24.328Z,-2.90
2022-12-13T10:16:02.442Z,-2.80
2022-12-13T10:18:42.399Z,-2.70
2022-12-13T10:21:28.704Z,-2.60
2022-12-13T10:24:25.886Z,-2.60
2022-12-13T10:26:57.077Z,-2.70
2022-12-13T10:29:24.284Z,-2.80
2022-12-13T10:31:52.901Z,-2.80
2022-12-13T10:34:35.815Z,-2.80
2022-12-13T10:37:23.921Z,-2.70
2022-12-13T10:39:51.015Z,-2.70
2022-12-13T10:42:23.410Z,-2.70
2022-12-13T10:45:15.278Z,-2.70
2022-12-13T10:47:45.367Z,-2.60
2022-12-13T10:50:28.783Z,-2.50
2022-12-13T10:52:58.275Z,-2.60
2022-12-13T10:55:27.558Z,-2.60
2022-12-13T10:58:17.105Z,-2.60
2022-12-13T11:00:46.942Z,-2.70
2022-12-13T11:03:32.546Z,-2.60
2022-12-13T11:06:27.959Z,-2.60
2022-12-13T11:08:55.207Z,-2.60
2022-12-13T11:11:30.405Z,-2.50
2022-12-13T11:14:01.532Z,-2.50
2022-12-13T11:16:33.784Z,-2.40
2022-12-13T11:19:05.257Z,-2.50
2022-12-13T11:21:36.968Z,-2.40
2022-12-13T11:24:07.743Z,-2.40
2022-12-13T11:26:39.293Z,-2.40
2022-12-13T11:29:25.952Z,-2.40
2022-12-13T11:32:42.744Z,-2.40
2022-12-13T11:35:21.462Z,-2.60
2022-12-13T11:38:42.319Z,-2.60
2022-12-13T11:41:31.395Z,-2.50
2022-12-13T11:44:10.398Z,-2.50
2022-12-13T11:46:44.086Z,-2.40
2022-12-13T11:49:27.992Z,-2.30
2022-12-13T11:52:04.631Z,-2.30
2022-12-13T11:55:00.919Z,-2.30
2022-12-13T11:58:54.033Z,-2.30
2022-12-13T12:01:22.493Z,-2.30
2022-12-13T12:04:29.371Z,-2.20
2022-12-13T12:07:31.650Z,-2.20
2022-12-13T12:10:23.682Z,-2.20
2022-12-13T12:12:57.757Z,-2.30
2022-12-13T12:15:41.773Z,-2.20
2022-12-13T12:18:16.456Z,-2.20
2022-12-13T12:21:11.372Z,-2.20
2022-12-13T12:23:52.438Z,-2.30
2022-12-13T12:26:27.771Z,-2.20
2022-12-13T12:29:03.037Z,-2.10
2022-12-13T12:31:50.386Z,-2.10
2022-12-13T12:34:45.806Z,-2.10
2022-12-13T12:37:34.817Z,-2.10
2022-12-13T12:41:07.033Z,-2.00
2022-12-13T12:43:40.194Z,-2.10
2022-12-13T12:47:01.359Z,-2.10
2022-12-13T12:49:52.588Z,-2.10
2022-12-13T12:53:14.859Z,-2.10
2022-12-13T12:55:57.109Z,-2.00
2022-12-13T12:58:54.231Z,-2.10
2022-12-13T13:01:44.471Z,-2.00
2022-12-13T13:04:22.314Z,-2.00
2022-12-13T13:07:22.966Z,-1.80
2022-12-13T13:09:54.948Z,-1.80
2022-12-13T13:12:29.519Z,-1.90
2022-12-13T13:14:58.052Z,-2.00
2022-12-13T13:17:25.018Z,-1.90
2022-12-13T13:20:21.368Z,-1.90
2022-12-13T13:23:03.870Z,-1.90
2022-12-13T13:25:54.008Z,-1.80
2022-12-13T13:28:23.375Z,-1.90
2022-12-13T13:31:09.191Z,-1.90
2022-12-13T13:33:49.800Z,-1.90
2022-12-13T13:36:41.678Z,-1.90
2022-12-13T13:39:19.322Z,-1.90
2022-12-13T13:42:14.184Z,-2.00
2022-12-13T13:44:50.525Z,-2.00
2022-12-13T13:47:20.206Z,-1.90
2022-12-13T13:50:08.868Z,-1.90
2022-12-13T13:52:44.772Z,-1.90
2022-12-13T13:56:06.780Z,-2.00
2022-12-13T13:59:47.052Z,-1.90
2022-12-13T14:02:50.924Z,-2.00
2022-12-13T14:06:22.372Z,-2.00
2022-12-13T14:09:14.802Z,-1.90
2022-12-13T14:12:05.492Z,-1.90
2022-12-13T14:15:09.687Z,-2.00
2022-12-13T14:18:28.077Z,-1.90
2022-12-13T14:21:36.445Z,-2.00
2022-12-13T14:24:28.361Z,-2.00
2022-12-13T14:27:51.096Z,-2.00
2022-12-13T14:30:28.130Z,-2.00
2022-12-13T14:32:57.040Z,-2.00
2022-12-13T14:35:34.331Z,-2.00
2022-12-13T14:38:16.357Z,-2.10
2022-12-13T14:40:54.142Z,-2.10
2022-12-13T14:43:27.147Z,-2.10
2022-12-13T14:46:04.204Z,-2.10
2022-12-13T14:48:45.433Z,-2.10
2022-12-13T14:51:36.193Z,-2.10
2022-12-13T14:54:05.676Z,-2.10
2022-12-13T14:56:32.895Z,-2.20
2022-12-13T14:59:03.310Z,-2.00
2022-12-13T15:01:36.272Z,-2.20
2022-12-13T15:04:21.512Z,-2.20
2022-12-13T15:07:24.715Z,-2.20
2022-12-13T15:09:59.949Z,-2.20
2022-12-13T15:12:28.289Z,-2.20
2022-12-13T15:15:06.363Z,-2.10
2022-12-13T15:17:40.368Z,-2.20
2022-12-13T15:20:32.177Z,-2.20
2022-12-13T15:23:22.357Z,-2.20
2022-12-13T15:26:06.300Z,-2.20
2022-12-13T15:28:36.649Z,-2.30
2022-12-13T15:31:05.666Z,-2.30
2022-12-13T15:33:38.046Z,-2.20
2022-12-13T15:36:24.605Z,-2.30
2022-12-13T15:38:54.784Z,-2.20
2022-12-13T15:41:28.813Z,-2.20
2022-12-13T15:44:06.179Z,-2.20
2022-12-13T15:46:38.101Z,-2.20
2022-12-13T15:49:22.593Z,-2.20
2022-12-13T15:52:04.928Z,-2.30
2022-12-13T15:54:33.024Z,-2.30
2022-12-13T15:57:23.349Z,-2.30
2022-12-13T16:00:32.155Z,-2.30
2022-12-13T16:03:12.498Z,-2.20
2022-12-13T16:05:49.029Z,-2.20
2022-12-13T16:08:31.408Z,-2.30
2022-12-13T16:10:59.929Z,-2.30
2022-12-13T16:13:47.504Z,-2.20
2022-12-13T16:16:28.105Z,-2.30
2022-12-13T16:18:58.266Z,-2.40
2022-12-13T16:21:27.022Z,-2.50
2022-12-13T16:23:54.305Z,-2.50
2022-12-13T16:26:27.597Z,-2.50
2022-12-13T16:28:58.621Z,-2.50
2022-12-13T16:31:31.534Z,-2.50
2022-12-13T16:33:58.525Z,-2.40
2022-12-13T16:36:26.635Z,-2.40
2022-12-13T16:38:54.598Z,-2.40
2022-12-13T16:41:22.229Z,-2.60
2022-12-13T16:43:54.449Z,-2.50
2022-12-13T16:47:12.291Z,-2.50
2022-12-13T16:49:26.366Z,-2.40
2022-12-13T16:51:54.339Z,-2.40
2022-12-13T16:54:23.590Z,-2.40
2022-12-13T16:56:51.678Z,-2.40
2022-12-13T16:59:22.564Z,-2.40
2022-12-13T17:01:53.187Z,-2.50
2022-12-13T17:04:23.897Z,-2.40
2022-12-13T17:06:54.784Z,-2.40
2022-12-13T17:09:22.936Z,-2.40
2022-12-13T17:11:49.920Z,-2.40
2022-12-13T17:14:16.891Z,-2.40
2022-12-13T17:16:43.890Z,-2.40
2022-12-13T17:19:14.614Z,-2.40
2022-12-13T17:21:41.609Z,-2.40
2022-12-13T17:24:08.710Z,-2.50
2022-12-13T17:26:35.574Z,-2.40
2022-12-13T17:29:02.861Z,-2.40
2022-12-13T17:31:35.164Z,-2.40
2022-12-13T17:34:02.818Z,-2.40
2022-12-13T17:36:31.607Z,-2.40
2022-12-13T17:38:59.133Z,-2.40
2022-12-13T17:41:26.233Z,-2.40
2022-12-13T17:43:53.149Z,-2.50
2022-12-13T17:46:20.194Z,-2.40
2022-12-13T17:48:47.245Z,-2.40
2022-12-13T17:51:14.883Z,-2.40
2022-12-13T17:53:44.440Z,-2.40
2022-12-13T17:56:17.642Z,-2.40
2022-12-13T17:58:45.174Z,-2.40
2022-12-13T18:01:18.863Z,-2.40
2022-12-13T18:03:48.786Z,-2.50
2022-12-13T18:06:16.042Z,-2.40
2022-12-13T18:08:44.569Z,-2.40
2022-12-13T18:14:05.571Z,-2.40
2022-12-13T18:16:37.368Z,-2.40
2022-12-13T18:19:12.983Z,-2.40
2022-12-13T18:21:39.919Z,-2.40
2022-12-13T18:24:07.653Z,-2.40
2022-12-13T18:26:35.244Z,-2.40
2022-12-13T18:29:03.614Z,-2.40
2022-12-13T18:31:30.884Z,-2.40
2022-12-13T18:33:57.904Z,-2.30
2022-12-13T18:36:26.636Z,-2.40
2022-12-13T18:38:54.032Z,-2.30
2022-12-13T18:41:24.603Z,-2.50
2022-12-13T18:44:01.753Z,-2.40
2022-12-13T18:46:35.186Z,-2.40
2022-12-13T18:49:02.986Z,-2.40
2022-12-13T18:51:30.136Z,-2.40
2022-12-13T18:53:57.383Z,-2.40
2022-12-13T18:56:25.872Z,-2.40
2022-12-13T18:58:53.632Z,-2.50
2022-12-13T19:01:22.662Z,-2.30
2022-12-13T19:03:50.986Z,-2.40
2022-12-13T19:06:22.320Z,-2.40
2022-12-13T19:08:51.980Z,-2.40
2022-12-13T19:11:20.643Z,-2.40
2022-12-13T19:13:48.432Z,-2.50
2022-12-13T19:16:20.258Z,-2.50
2022-12-13T19:18:48.313Z,-2.40
2022-12-13T19:21:18.885Z,-2.50
2022-12-13T19:23:51.257Z,-2.50
2022-12-13T19:26:22.704Z,-2.40
2022-12-13T19:28:50.427Z,-2.40
2022-12-13T19:31:17.477Z,-2.40
2022-12-13T19:33:44.443Z,-2.40
2022-12-13T19:36:11.813Z,-2.40
2022-12-13T19:38:40.163Z,-2.40
2022-12-13T19:41:14.078Z,-2.40
2022-12-13T19:43:41.918Z,-2.40
2022-12-13T19:46:10.414Z,-2.50
2022-12-13T19:48:38.066Z,-2.50
2022-12-13T19:51:08.828Z,-2.40
2022-12-13T19:53:38.162Z,-2.40
2022-12-13T19:56:17.729Z,-2.40
2022-12-13T19:58:46.854Z,-2.40
2022-12-13T20:01:14.697Z,-2.40
2022-12-13T20:03:45.364Z,-2.40
2022-12-13T20:06:16.937Z,-2.40
2022-12-13T20:08:44.582Z,-2.40
2022-12-13T20:11:15.532Z,-2.40
2022-12-13T20:13:42.736Z,-2.40
2022-12-13T20:16:19.612Z,-2.40
2022-12-13T20:18:47.710Z,-2.40
2022-12-13T20:21:15.686Z,-2.40
2022-12-13T20:23:48.757Z,-2.30
2022-12-13T20:26:20.493Z,-2.30
2022-12-13T20:28:49.299Z,-2.30
2022-12-13T20:31:32.280Z,-2.30
2022-12-13T20:34:09.026Z,-2.30
2022-12-13T20:36:36.998Z,-2.30
2022-12-13T20:39:05.715Z,-2.30
2022-12-13T20:41:35.130Z,-2.30
2022-12-13T20:44:04.592Z,-2.30
2022-12-13T20:46:32.303Z,-2.20
2022-12-13T20:49:02.990Z,-2.00
2022-12-13T20:51:31.998Z,-2.20
2022-12-13T20:54:00.309Z,-2.30
2022-12-13T20:56:31.727Z,-2.30
2022-12-13T20:58:59.983Z,-2.20
2022-12-13T21:01:32.809Z,-2.20
2022-12-13T21:04:02.892Z,-2.20
2022-12-13T21:06:32.160Z,-2.30
2022-12-13T21:09:02.719Z,-2.20
2022-12-13T21:11:38.845Z,-1.90
2022-12-13T21:14:21.366Z,-2.10
2022-12-13T21:16:52.678Z,-2.10
2022-12-13T21:19:26.625Z,-2.10
2022-12-13T21:21:55.514Z,-2.10
2022-12-13T21:24:25.671Z,-2.10
2022-12-13T21:26:53.203Z,-2.10
2022-12-13T21:29:20.582Z,-2.00
2022-12-13T21:31:50.118Z,-2.10
2022-12-13T21:34:19.054Z,-2.10
2022-12-13T21:36:48.556Z,-2.00
2022-12-13T21:39:22.549Z,-2.00
2022-12-13T21:41:50.477Z,-2.00
2022-12-13T21:44:18.453Z,-2.00
2022-12-13T21:49:33.058Z,-2.00
2022-12-13T21:51:59.953Z,-2.00
2022-12-13T21:54:26.955Z,-2.00
2022-12-13T21:57:12.757Z,-2.00
2022-12-13T21:59:40.700Z,-1.90
2022-12-13T22:02:16.758Z,-2.00
2022-12-13T22:04:51.760Z,-1.90
2022-12-13T22:07:28.634Z,-1.90
2022-12-13T22:09:57.171Z,-1.90
2022-12-13T22:12:34.178Z,-1.90
2022-12-13T22:15:02.462Z,-1.90
2022-12-13T22:17:35.230Z,-2.00
2022-12-13T22:20:06.407Z,-1.90
2022-12-13T22:22:35.019Z,-1.90
2022-12-13T22:25:02.106Z,-1.90
2022-12-13T22:27:30.016Z,-1.80
2022-12-13T22:29:57.931Z,-1.90
2022-12-13T22:32:29.229Z,-1.90
2022-12-13T22:34:56.813Z,-1.80
2022-12-13T22:37:25.120Z,-1.80
2022-12-13T22:39:52.083Z,-1.80
2022-12-13T22:42:20.038Z,-1.80
2022-12-13T22:44:47.655Z,-1.70
2022-12-13T22:47:14.661Z,-1.80
2022-12-13T22:49:41.550Z,-1.70
2022-12-13T22:52:08.870Z,-1.60
2022-12-13T22:54:36.048Z,-1.70
2022-12-13T22:57:03.511Z,-1.70
2022-12-13T22:59:30.699Z,-1.70
2022-12-13T23:02:02.458Z,-1.70
2022-12-13T23:04:31.672Z,-1.80
2022-12-13T23:06:58.679Z,-1.80
2022-12-13T23:09:25.645Z,-1.80
2022-12-13T23:12:11.134Z,-1.80
2022-12-13T23:14:38.025Z,-1.70
2022-12-13T23:17:05.137Z,-1.70
2022-12-13T23:19:51.015Z,-1.70
2022-12-13T23:22:25.481Z,-1.70
2022-12-13T23:24:53.071Z,-1.70
2022-12-13T23:27:22.556Z,-1.70
2022-12-13T23:29:49.847Z,-1.70
2022-12-13T23:32:17.420Z,-1.70
2022-12-13T23:34:44.425Z,-1.70
2022-12-13T23:37:11.519Z,-1.60
2022-12-13T23:39:38.778Z,-1.60
2022-12-13T23:42:05.876Z,-1.50
2022-12-13T23:44:32.831Z,-1.50
2022-12-13T23:46:59.769Z,-1.50
2022-12-13T23:49:26.718Z,-1.50
2022-12-13T23:51:54.176Z,-1.60
2022-12-13T23:54:21.093Z,-1.60
2022-12-13T23:56:48.359Z,-1.60
2022-12-13T23:59:15.327Z,-1.60
